Terminal Aerodrome Forecast
Issued by NWS Blacksburg, VA

Current Version | Previous Version | Graphics & Text | Print | Product List | Glossary On
Versions: 1 2 3 4 5 6 7 8 9 10 11 12 13 14 15 16 17 18 19 20 21 22 23 24 25 26
000
FTUS41 KRNK 150523
TAFBLF
TAF
KBLF 150523Z 1506/1606 28006KT 2SM -RA BR OVC003
      TEMPO 1506/1509 4SM BR OVC001
     FM151200 VRB03KT 1SM BR OVC005
     FM151700 VRB03KT P6SM OVC015
     FM152100 27004KT P6SM OVC008
     FM160100 VRB03KT 2SM -RA BR OVC015
     FM160400 VRB03KT P6SM -RA OVC015=

USA.gov is the U.S. government's official web portal to all federal, state and local government web resources and services.